Time;durP1;ratioP1;P1;durP2;ratioP2;P2;SDS_P1;SDS_P2;PMS_P1;PMS_P2;Temp;Humidity;BMP_temperature;BMP_pressure;BME280_temperature;BME280_humidity;BME280_pressure;Samples;Min_cycle;Max_cycle;Signal;HPM_P1;HPM_P2
2023/08/09 00:00:58;;;;;;;4.33;3.10;;;19.00;47.60;;;;;;5073541;28;20790;-52
2023/08/09 00:03:24;;;;;;;4.47;2.77;;;19.00;47.50;;;;;;5073898;28;20173;-53
2023/08/09 00:05:50;;;;;;;5.93;2.90;;;18.90;47.50;;;;;;5073747;28;20206;-56
2023/08/09 00:08:16;;;;;;;6.73;3.67;;;18.90;47.60;;;;;;5073614;28;20494;-52
2023/08/09 00:10:42;;;;;;;3.53;3.00;;;18.80;47.20;;;;;;5073426;28;20603;-53
2023/08/09 00:13:07;;;;;;;4.50;3.67;;;18.80;47.30;;;;;;5073939;28;20647;-56
2023/08/09 00:15:33;;;;;;;4.43;2.70;;;18.80;47.60;;;;;;5073657;28;20664;-53
2023/08/09 00:17:59;;;;;;;3.70;3.10;;;18.80;47.60;;;;;;5072262;28;20450;-55
2023/08/09 00:20:25;;;;;;;5.60;3.07;;;18.70;47.70;;;;;;5073182;28;20426;-53
2023/08/09 00:22:51;;;;;;;6.07;3.42;;;18.70;47.80;;;;;;5073277;28;20830;-52
2023/08/09 00:25:18;;;;;;;4.03;3.13;;;18.70;47.60;;;;;;5055542;28;20181;-56
2023/08/09 00:27:43;;;;;;;3.20;2.67;;;18.70;47.90;;;;;;5073224;28;20415;-56
2023/08/09 00:30:13;;;;;;;5.80;3.10;;;18.70;48.00;;;;;;5073198;28;20242;-53
2023/08/09 00:32:40;;;;;;;5.05;3.78;;;18.70;48.10;;;;;;5073161;28;20925;-52
2023/08/09 00:35:08;;;;;;;4.45;3.10;;;18.70;48.10;;;;;;5073097;28;20295;-53
2023/08/09 00:37:34;;;;;;;3.20;2.80;;;18.70;48.00;;;;;;5073054;28;20651;-53
2023/08/09 00:40:00;;;;;;;9.57;3.70;;;18.70;48.20;;;;;;5072784;28;20161;-53
2023/08/09 00:42:26;;;;;;;2.80;2.50;;;18.70;48.30;;;;;;5073078;28;20179;-55
2023/08/09 00:44:52;;;;;;;4.28;2.60;;;18.70;48.20;;;;;;5072971;28;20911;-53
2023/08/09 00:47:20;;;;;;;6.30;3.87;;;18.70;48.00;;;;;;5072939;28;20180;-57
2023/08/09 00:49:46;;;;;;;5.53;3.25;;;18.80;48.10;;;;;;5072542;28;20764;-52
2023/08/09 00:52:12;;;;;;;6.85;2.92;;;18.70;47.90;;;;;;5072705;28;20193;-53
2023/08/09 00:54:39;;;;;;;4.60;2.95;;;18.70;48.20;;;;;;5072692;28;20362;-58
2023/08/09 00:57:08;;;;;;;3.53;2.90;;;18.70;48.20;;;;;;5072823;28;20169;-54
2023/08/09 00:59:34;;;;;;;3.70;3.10;;;18.70;48.40;;;;;;5071286;28;20178;-56
2023/08/09 01:02:00;;;;;;;4.10;2.63;;;18.70;48.30;;;;;;5072833;28;20197;-55
2023/08/09 01:04:26;;;;;;;3.43;2.80;;;18.70;48.30;;;;;;5072061;28;20567;-54
2023/08/09 01:07:00;;;;;;;6.85;3.38;;;18.70;48.50;;;;;;5071299;28;20965;-52
2023/08/09 01:09:58;;;;;;;5.97;3.30;;;18.70;48.40;;;;;;5072439;28;20529;-55
2023/08/09 01:12:28;;;;;;;4.00;2.70;;;18.70;48.30;;;;;;5063022;28;20254;-53
2023/08/09 01:14:59;;;;;;;3.25;2.70;;;18.70;48.50;;;;;;5071043;28;20193;-55
2023/08/09 01:17:29;;;;;;;4.53;2.55;;;18.70;48.70;;;;;;5072676;28;20563;-57
2023/08/09 01:19:57;;;;;;;3.55;2.55;;;18.70;48.30;;;;;;5072292;28;20175;-59
2023/08/09 01:22:31;;;;;;;4.68;2.72;;;18.70;48.50;;;;;;5071208;28;20160;-53
2023/08/09 01:25:03;;;;;;;4.13;3.28;;;18.70;48.70;;;;;;5072310;28;20551;-54
2023/08/09 01:27:33;;;;;;;6.53;3.60;;;18.70;49.00;;;;;;5072244;28;20830;-57
2023/08/09 01:29:59;;;;;;;5.70;3.05;;;18.70;48.90;;;;;;5070704;28;20204;-53
2023/08/09 01:32:26;;;;;;;7.40;3.40;;;18.70;49.10;;;;;;5072213;28;20320;-55
2023/08/09 01:34:52;;;;;;;3.33;2.65;;;18.80;49.10;;;;;;5072086;28;20200;-51
2023/08/09 01:37:30;;;;;;;5.45;2.85;;;18.80;49.00;;;;;;5072115;28;20183;-57
2023/08/09 01:39:58;;;;;;;3.80;3.13;;;18.80;49.00;;;;;;5072076;28;20164;-53
2023/08/09 01:42:25;;;;;;;7.55;3.05;;;18.70;48.70;;;;;;5072084;28;20571;-53
2023/08/09 01:44:52;;;;;;;4.40;2.97;;;18.80;48.70;;;;;;5072061;28;20210;-57
2023/08/09 01:47:19;;;;;;;3.58;2.70;;;18.80;49.00;;;;;;5072101;28;20183;-58
2023/08/09 01:49:47;;;;;;;3.70;2.92;;;18.70;48.90;;;;;;5071643;28;20552;-54
2023/08/09 01:52:13;;;;;;;3.47;2.78;;;18.80;48.90;;;;;;5072187;28;20632;-56
2023/08/09 01:54:39;;;;;;;5.13;3.05;;;18.90;49.30;;;;;;5071759;28;20205;-54
2023/08/09 01:57:05;;;;;;;4.78;2.72;;;18.80;49.20;;;;;;5071998;28;20199;-57
2023/08/09 01:59:31;;;;;;;5.93;3.00;;;18.90;49.30;;;;;;5071801;28;20204;-52
2023/08/09 02:01:57;;;;;;;7.47;2.80;;;19.00;49.40;;;;;;5071846;28;20897;-53
2023/08/09 02:04:23;;;;;;;5.43;2.57;;;19.00;49.50;;;;;;5071900;28;20173;-57
2023/08/09 02:06:49;;;;;;;5.53;3.88;;;19.00;49.30;;;;;;5071789;28;20169;-52
2023/08/09 02:09:15;;;;;;;6.33;3.70;;;19.00;49.20;;;;;;5071555;28;20180;-57
2023/08/09 02:11:41;;;;;;;5.13;3.37;;;19.00;49.30;;;;;;5071729;28;20426;-57
2023/08/09 02:14:07;;;;;;;5.43;3.07;;;19.00;49.30;;;;;;5071706;28;20200;-52
2023/08/09 02:16:33;;;;;;;4.75;3.10;;;19.00;49.30;;;;;;5074370;28;20168;-55
2023/08/09 02:19:00;;;;;;;4.97;2.85;;;19.10;49.40;;;;;;5075721;28;20218;-57
2023/08/09 02:21:26;;;;;;;4.65;3.35;;;19.10;49.50;;;;;;5075417;28;20676;-53
2023/08/09 02:23:52;;;;;;;3.85;2.80;;;19.10;49.60;;;;;;5075632;28;20223;-58
2023/08/09 02:26:21;;;;;;;4.75;3.97;;;19.10;49.50;;;;;;5075874;28;20168;-56
2023/08/09 02:28:48;;;;;;;5.72;3.72;;;19.10;49.70;;;;;;5075502;28;20181;-54
2023/08/09 02:31:14;;;;;;;4.25;3.47;;;19.10;49.60;;;;;;5075540;28;20556;-55
2023/08/09 02:33:41;;;;;;;4.05;3.20;;;19.10;49.30;;;;;;5075371;28;20176;-57
2023/08/09 02:36:07;;;;;;;4.47;2.90;;;19.10;49.00;;;;;;5075339;28;20202;-53
2023/08/09 02:38:33;;;;;;;3.90;2.65;;;19.10;49.30;;;;;;5075363;28;20221;-52
2023/08/09 02:41:06;;;;;;;5.95;3.70;;;19.20;49.30;;;;;;5075035;28;20188;-55
2023/08/09 02:43:31;;;;;;;4.43;3.10;;;19.20;49.30;;;;;;5075427;28;20548;-57
2023/08/09 02:45:58;;;;;;;6.03;3.93;;;19.20;49.30;;;;;;5075245;28;20652;-53
2023/08/09 02:48:25;;;;;;;8.20;3.40;;;19.20;49.30;;;;;;5075177;28;20903;-55
2023/08/09 02:50:50;;;;;;;5.45;3.03;;;19.20;49.20;;;;;;5075044;28;20197;-58
2023/08/09 02:53:19;;;;;;;3.80;3.03;;;19.20;48.90;;;;;;5075005;28;20161;-58
2023/08/09 02:55:45;;;;;;;5.13;3.10;;;19.20;49.00;;;;;;5075144;28;20982;-52
2023/08/09 02:58:12;;;;;;;2.93;2.53;;;19.20;49.20;;;;;;5075076;28;20401;-54
2023/08/09 03:00:38;;;;;;;4.97;3.30;;;19.20;49.30;;;;;;5074646;28;20188;-54
2023/08/09 03:03:05;;;;;;;4.40;3.20;;;19.20;49.30;;;;;;5074958;28;20175;-52
2023/08/09 03:05:32;;;;;;;8.10;3.30;;;19.20;49.20;;;;;;5074865;28;20181;-55
2023/08/09 03:07:57;;;;;;;4.78;2.80;;;19.30;49.40;;;;;;5074779;28;20169;-56
2023/08/09 03:10:23;;;;;;;4.23;3.50;;;19.30;49.50;;;;;;5074466;28;20235;-54
2023/08/09 03:12:49;;;;;;;5.43;3.20;;;19.30;49.70;;;;;;5074711;28;20395;-52
2023/08/09 03:15:16;;;;;;;4.57;3.20;;;19.30;49.70;;;;;;5074817;28;20453;-56
2023/08/09 03:17:42;;;;;;;4.03;3.67;;;19.30;49.60;;;;;;5074878;28;20909;-57
2023/08/09 03:20:15;;;;;;;4.22;2.97;;;19.30;49.70;;;;;;5074306;28;20184;-53
2023/08/09 03:22:50;;;;;;;4.22;3.72;;;19.30;49.90;;;;;;5073375;28;20164;-57
2023/08/09 03:25:16;;;;;;;5.43;3.22;;;19.30;49.80;;;;;;5074543;28;20187;-53
2023/08/09 03:27:41;;;;;;;9.40;4.00;;;19.30;50.00;;;;;;5074024;28;20222;-57
2023/08/09 03:30:08;;;;;;;6.97;3.03;;;19.30;49.90;;;;;;5074142;28;20176;-52
2023/08/09 03:32:35;;;;;;;7.55;2.60;;;19.30;50.10;;;;;;5074235;28;20173;-53
2023/08/09 03:35:02;;;;;;;4.72;3.70;;;19.40;50.10;;;;;;5074316;28;20242;-56
2023/08/09 03:37:28;;;;;;;5.88;3.50;;;19.40;50.10;;;;;;5074362;28;20786;-54
2023/08/09 03:39:54;;;;;;;4.57;3.00;;;19.40;50.20;;;;;;5073989;28;20173;-53
2023/08/09 03:42:20;;;;;;;3.87;2.80;;;19.30;50.30;;;;;;5074224;28;20190;-58
2023/08/09 03:44:46;;;;;;;5.73;3.50;;;19.30;50.40;;;;;;5074342;28;20183;-57
2023/08/09 03:47:11;;;;;;;3.77;2.87;;;19.30;50.40;;;;;;5074301;28;20517;-53
2023/08/09 03:49:37;;;;;;;4.67;2.73;;;19.40;50.40;;;;;;5074075;28;20438;-55
2023/08/09 03:52:03;;;;;;;7.47;4.03;;;19.30;50.40;;;;;;5073975;28;20604;-57
2023/08/09 03:54:30;;;;;;;6.38;3.60;;;19.40;50.60;;;;;;5073877;28;20606;-53
2023/08/09 03:56:56;;;;;;;3.85;3.03;;;19.40;50.60;;;;;;5073934;28;20578;-57
2023/08/09 03:59:23;;;;;;;4.88;3.35;;;19.30;50.60;;;;;;5073602;28;20659;-56
2023/08/09 04:01:48;;;;;;;5.88;3.50;;;19.40;50.60;;;;;;5073906;28;20205;-51
2023/08/09 04:04:14;;;;;;;4.93;3.43;;;19.30;50.60;;;;;;5073897;28;20169;-54
2023/08/09 04:06:40;;;;;;;3.03;2.57;;;19.30;50.80;;;;;;5073761;28;20629;-56
2023/08/09 04:09:07;;;;;;;3.80;3.50;;;19.30;50.90;;;;;;5073437;28;20541;-56
2023/08/09 04:11:33;;;;;;;5.72;3.30;;;19.30;51.00;;;;;;5073521;28;20207;-52
2023/08/09 04:13:59;;;;;;;4.60;3.35;;;19.40;51.00;;;;;;5072349;28;20207;-57
2023/08/09 04:16:25;;;;;;;5.90;3.30;;;19.30;51.00;;;;;;5073733;28;20164;-52
2023/08/09 04:18:51;;;;;;;7.95;4.57;;;19.40;51.10;;;;;;5073787;28;20173;-53
2023/08/09 04:21:17;;;;;;;3.80;3.30;;;19.40;51.00;;;;;;5073307;28;20224;-56
2023/08/09 04:23:43;;;;;;;7.60;3.90;;;19.40;51.00;;;;;;5073467;28;20254;-52
2023/08/09 04:26:09;;;;;;;3.87;3.13;;;19.40;51.10;;;;;;5073405;28;20763;-59
2023/08/09 04:28:35;;;;;;;3.30;3.00;;;19.40;51.00;;;;;;5073193;28;20448;-57
2023/08/09 04:31:02;;;;;;;6.23;5.00;;;19.40;50.90;;;;;;5072915;28;20212;-53
2023/08/09 04:33:28;;;;;;;3.75;3.33;;;19.40;51.10;;;;;;5073915;28;20177;-52
2023/08/09 04:35:54;;;;;;;5.63;3.60;;;19.30;51.30;;;;;;5074070;28;20215;-58
2023/08/09 04:38:20;;;;;;;12.53;3.40;;;19.40;51.40;;;;;;5073528;28;20395;-57
2023/08/09 04:40:47;;;;;;;4.30;3.90;;;19.40;51.50;;;;;;5074567;28;20729;-53
2023/08/09 04:43:14;;;;;;;6.45;3.90;;;19.40;51.50;;;;;;5075952;28;20172;-53
2023/08/09 04:45:40;;;;;;;8.63;4.43;;;19.40;51.60;;;;;;5077056;28;20192;-52
2023/08/09 04:48:14;;;;;;;9.25;3.45;;;19.40;51.60;;;;;;5076151;28;20179;-57
2023/08/09 04:50:40;;;;;;;5.05;3.40;;;19.40;51.80;;;;;;5075310;28;20203;-58
2023/08/09 04:53:06;;;;;;;5.37;3.93;;;19.40;51.90;;;;;;5074873;28;20176;-53
2023/08/09 04:55:32;;;;;;;4.23;3.30;;;19.50;52.60;;;;;;5075311;28;20674;-55
2023/08/09 04:57:58;;;;;;;7.03;3.93;;;19.40;51.90;;;;;;5074805;28;20184;-58
2023/08/09 05:00:23;;;;;;;4.75;4.07;;;19.40;51.80;;;;;;5073495;28;20656;-53
2023/08/09 05:02:49;;;;;;;8.80;4.90;;;19.40;51.90;;;;;;5073719;28;20188;-54
2023/08/09 05:05:15;;;;;;;9.20;5.20;;;19.40;51.80;;;;;;5073770;28;20411;-59
2023/08/09 05:07:41;;;;;;;8.02;5.72;;;19.40;51.90;;;;;;5073818;28;20200;-56
2023/08/09 05:10:11;;;;;;;7.53;4.20;;;19.40;51.90;;;;;;5073795;28;20180;-58
2023/08/09 05:12:36;;;;;;;7.78;6.13;;;19.40;51.60;;;;;;5074967;28;20172;-54
2023/08/09 05:15:03;;;;;;;10.03;5.13;;;19.30;51.80;;;;;;5073647;28;20537;-54
2023/08/09 05:17:29;;;;;;;7.20;5.03;;;19.30;51.70;;;;;;5073020;28;20176;-58
2023/08/09 05:19:55;;;;;;;8.90;4.10;;;19.30;51.90;;;;;;5074685;28;20176;-57
2023/08/09 05:22:21;;;;;;;4.87;4.30;;;19.20;52.10;;;;;;5075886;28;20434;-53
2023/08/09 05:24:48;;;;;;;8.40;3.67;;;19.20;52.00;;;;;;5075281;28;20411;-54
2023/08/09 05:27:14;;;;;;;4.18;3.50;;;19.10;51.90;;;;;;5057755;28;20176;-58
2023/08/09 05:29:40;;;;;;;5.20;3.23;;;19.10;52.20;;;;;;5074725;28;20172;-55
2023/08/09 05:32:06;;;;;;;3.23;2.23;;;19.00;52.30;;;;;;5074042;28;20193;-52
2023/08/09 05:34:31;;;;;;;4.43;2.60;;;19.00;52.30;;;;;;5074015;28;20193;-52
2023/08/09 05:36:57;;;;;;;3.00;2.70;;;19.00;52.70;;;;;;5073523;28;20526;-59
2023/08/09 05:39:23;;;;;;;4.00;3.23;;;19.00;52.60;;;;;;5074367;28;20205;-58
2023/08/09 05:41:49;;;;;;;3.97;3.07;;;19.00;52.90;;;;;;5075556;28;20267;-53
2023/08/09 05:44:14;;;;;;;3.90;2.37;;;19.00;53.20;;;;;;5074975;28;20168;-54
2023/08/09 05:46:40;;;;;;;11.20;2.70;;;19.00;53.10;;;;;;5074017;28;20161;-59
2023/08/09 05:49:06;;;;;;;4.20;3.00;;;19.00;53.10;;;;;;5075019;28;20169;-58
2023/08/09 05:51:32;;;;;;;3.50;2.77;;;19.10;53.30;;;;;;5074708;28;20200;-58
2023/08/09 05:53:58;;;;;;;4.80;3.13;;;19.10;53.40;;;;;;5072299;28;20577;-53
2023/08/09 05:56:25;;;;;;;3.33;2.83;;;19.10;53.40;;;;;;5073908;28;20208;-58
2023/08/09 05:58:51;;;;;;;3.42;3.13;;;19.20;53.40;;;;;;5072737;28;20437;-54
2023/08/09 06:01:17;;;;;;;4.65;2.70;;;19.20;53.30;;;;;;5056876;28;20241;-52
2023/08/09 06:03:43;;;;;;;4.03;3.00;;;19.20;53.40;;;;;;5074546;28;20259;-58
2023/08/09 06:06:12;;;;;;;3.97;3.10;;;19.20;53.30;;;;;;5074724;28;20173;-55
2023/08/09 06:08:39;;;;;;;5.13;2.90;;;19.20;53.20;;;;;;5072144;28;20596;-53
2023/08/09 06:11:05;;;;;;;4.85;2.90;;;19.20;53.00;;;;;;5072420;28;20557;-53
2023/08/09 06:13:31;;;;;;;4.45;2.55;;;19.20;52.80;;;;;;5073868;28;20636;-55
2023/08/09 06:15:58;;;;;;;3.45;2.90;;;19.20;52.90;;;;;;5073440;28;20763;-60
2023/08/09 06:18:24;;;;;;;4.57;2.67;;;19.10;52.80;;;;;;5076308;28;20247;-53
2023/08/09 06:20:51;;;;;;;3.75;3.03;;;19.20;53.20;;;;;;5074249;28;20243;-52
2023/08/09 06:23:17;;;;;;;3.80;3.15;;;19.20;53.40;;;;;;5071106;28;20524;-53
2023/08/09 06:25:43;;;;;;;3.75;3.28;;;19.20;53.50;;;;;;5072374;28;20191;-56
2023/08/09 06:28:09;;;;;;;3.40;3.07;;;19.20;53.50;;;;;;5073547;28;20173;-58
2023/08/09 06:30:34;;;;;;;4.70;2.53;;;19.20;53.40;;;;;;5073638;28;20437;-53
2023/08/09 06:33:01;;;;;;;4.33;3.00;;;19.20;53.30;;;;;;5074628;28;20417;-53
2023/08/09 06:35:27;;;;;;;4.47;2.90;;;19.20;53.20;;;;;;5074139;28;20623;-52
2023/08/09 06:37:53;;;;;;;4.20;2.43;;;19.20;53.00;;;;;;5074029;28;20256;-57
2023/08/09 06:40:20;;;;;;;4.82;2.88;;;19.20;52.90;;;;;;5073008;28;20253;-54
2023/08/09 06:42:46;;;;;;;4.30;3.40;;;19.20;53.00;;;;;;5073092;28;20743;-53
2023/08/09 06:45:12;;;;;;;16.27;4.77;;;19.20;53.20;;;;;;5073849;28;20263;-57
2023/08/09 06:47:38;;;;;;;3.87;3.57;;;19.20;53.00;;;;;;5074231;28;20816;-55
2023/08/09 06:50:05;;;;;;;3.43;3.13;;;19.20;53.10;;;;;;5073533;28;20460;-53
2023/08/09 06:52:38;;;;;;;4.15;2.95;;;19.20;53.10;;;;;;5072971;28;20177;-57
2023/08/09 06:55:08;;;;;;;4.45;4.00;;;19.20;52.80;;;;;;5074132;28;20208;-55
2023/08/09 06:57:35;;;;;;;3.35;2.85;;;19.20;53.10;;;;;;5073174;28;20153;-53
2023/08/09 07:00:02;;;;;;;2.97;2.67;;;19.20;53.10;;;;;;5073719;28;20203;-58
2023/08/09 07:02:29;;;;;;;3.35;2.95;;;19.20;53.40;;;;;;5075581;28;20168;-56
2023/08/09 07:04:59;;;;;;;3.25;2.90;;;19.30;53.30;;;;;;5076727;28;20207;-53
2023/08/09 07:07:25;;;;;;;3.28;2.83;;;19.30;53.20;;;;;;5076754;28;20168;-53
2023/08/09 07:09:52;;;;;;;4.43;2.80;;;19.00;53.20;;;;;;5076256;28;20656;-53
2023/08/09 07:12:20;;;;;;;4.47;3.95;;;19.30;53.20;;;;;;5075743;28;20581;-56
2023/08/09 07:14:46;;;;;;;3.78;3.47;;;19.30;53.30;;;;;;5075670;28;20284;-52
2023/08/09 07:17:12;;;;;;;4.82;3.30;;;19.30;53.30;;;;;;5076925;28;20180;-52
2023/08/09 07:19:38;;;;;;;4.28;3.33;;;19.30;54.20;;;;;;5075590;28;20177;-58
2023/08/09 07:22:04;;;;;;;5.47;3.10;;;19.30;53.80;;;;;;5075465;28;20180;-55
2023/08/09 07:24:30;;;;;;;3.63;2.70;;;19.40;53.90;;;;;;5075725;28;20438;-54
2023/08/09 07:26:57;;;;;;;4.70;2.80;;;19.40;53.90;;;;;;5078230;28;20544;-53
2023/08/09 07:29:23;;;;;;;3.33;2.83;;;19.50;53.80;;;;;;5057604;28;20411;-56
2023/08/09 07:31:49;;;;;;;4.30;2.83;;;19.50;53.40;;;;;;5075595;28;20200;-58
2023/08/09 07:34:15;;;;;;;3.20;2.90;;;19.50;53.30;;;;;;5075615;28;20492;-52
2023/08/09 07:36:41;;;;;;;4.15;3.65;;;19.50;54.10;;;;;;5075470;28;20414;-51
2023/08/09 07:39:09;;;;;;;3.90;3.33;;;19.50;53.70;;;;;;5075819;28;20532;-57
2023/08/09 07:41:35;;;;;;;3.00;2.58;;;19.50;53.60;;;;;;5076242;28;20271;-57
2023/08/09 07:44:01;;;;;;;4.82;3.55;;;19.60;53.70;;;;;;5076182;28;20183;-54
2023/08/09 07:46:27;;;;;;;3.10;2.80;;;19.60;53.80;;;;;;5076098;28;20189;-53
2023/08/09 07:48:54;;;;;;;2.80;2.40;;;19.70;53.60;;;;;;5076381;28;20411;-51
2023/08/09 07:51:21;;;;;;;3.55;2.97;;;19.70;53.30;;;;;;5075615;28;20928;-58
2023/08/09 07:53:47;;;;;;;3.85;2.47;;;19.70;53.20;;;;;;5076692;28;20197;-57
2023/08/09 07:56:13;;;;;;;9.80;3.83;;;19.70;53.80;;;;;;5074606;28;20241;-52
2023/08/09 07:58:40;;;;;;;3.92;2.92;;;19.80;53.90;;;;;;5077512;28;20202;-53
2023/08/09 08:01:05;;;;;;;3.45;3.15;;;19.90;53.80;;;;;;5074216;28;20283;-58
2023/08/09 08:03:33;;;;;;;5.10;3.10;;;19.90;53.90;;;;;;5078105;28;20184;-58
2023/08/09 08:05:59;;;;;;;4.40;2.80;;;20.10;53.70;;;;;;5076570;28;20582;-53
2023/08/09 08:08:25;;;;;;;4.70;3.40;;;20.20;53.90;;;;;;5076144;28;20217;-55
2023/08/09 08:10:51;;;;;;;4.43;2.57;;;20.30;54.10;;;;;;5075739;28;20242;-57
2023/08/09 08:13:16;;;;;;;5.30;2.17;;;20.40;52.70;;;;;;5077292;28;20410;-59
2023/08/09 08:15:43;;;;;;;4.50;3.93;;;20.40;52.40;;;;;;5075059;28;20279;-53
2023/08/09 08:18:09;;;;;;;3.55;2.63;;;20.50;53.40;;;;;;5075904;28;20486;-55
2023/08/09 08:20:35;;;;;;;2.60;2.40;;;20.70;53.40;;;;;;5075186;28;20296;-54
2023/08/09 08:23:04;;;;;;;3.40;2.65;;;20.80;52.70;;;;;;5074895;28;20228;-52
2023/08/09 08:25:29;;;;;;;4.63;2.63;;;20.90;52.70;;;;;;5076420;28;20173;-53
2023/08/09 08:27:55;;;;;;;2.40;2.20;;;21.00;52.60;;;;;;5076412;28;20223;-58
2023/08/09 08:30:21;;;;;;;4.17;2.90;;;21.20;52.80;;;;;;5075092;28;20238;-53
2023/08/09 08:32:48;;;;;;;2.53;2.23;;;21.40;53.30;;;;;;5077312;28;20427;-53
2023/08/09 08:35:19;;;;;;;2.47;2.27;;;21.50;53.00;;;;;;5075378;28;20449;-53
2023/08/09 08:37:46;;;;;;;2.87;1.90;;;21.50;52.00;;;;;;5074088;28;20403;-57
2023/08/09 08:40:17;;;;;;;2.53;1.80;;;21.50;51.70;;;;;;5074529;28;20427;-54
2023/08/09 08:42:45;;;;;;;2.50;1.90;;;21.50;51.30;;;;;;5074919;28;20419;-54
2023/08/09 08:45:12;;;;;;;3.10;1.77;;;21.50;50.30;;;;;;5075870;28;20407;-54
2023/08/09 08:47:40;;;;;;;4.53;2.27;;;21.40;49.70;;;;;;5075250;28;20410;-53
2023/08/09 08:50:10;;;;;;;3.67;1.70;;;21.40;49.60;;;;;;5074715;28;20770;-53
2023/08/09 08:52:39;;;;;;;3.80;2.57;;;21.30;49.80;;;;;;5073147;28;20402;-52
2023/08/09 08:55:06;;;;;;;2.97;2.40;;;21.20;49.90;;;;;;5074012;28;20458;-56
2023/08/09 08:57:33;;;;;;;2.50;1.73;;;21.20;48.80;;;;;;5074377;28;20442;-53
2023/08/09 09:00:03;;;;;;;3.40;2.43;;;21.10;49.10;;;;;;5074131;28;20887;-51
2023/08/09 09:02:29;;;;;;;2.40;1.90;;;21.10;49.30;;;;;;5073539;28;20405;-54
2023/08/09 09:04:55;;;;;;;2.43;2.23;;;21.00;49.30;;;;;;5073526;28;20411;-56
2023/08/09 09:07:20;;;;;;;2.93;2.07;;;21.10;49.30;;;;;;5073224;28;20748;-51
2023/08/09 09:10:00;;;;;;;3.83;2.90;;;21.00;49.60;;;;;;5072879;28;20256;-58
2023/08/09 09:12:26;;;;;;;2.17;1.77;;;21.10;50.00;;;;;;5073201;28;20960;-57
2023/08/09 09:14:52;;;;;;;5.47;3.10;;;21.10;49.70;;;;;;5072708;28;20451;-58
2023/08/09 09:17:22;;;;;;;2.92;2.63;;;21.10;49.50;;;;;;5072845;28;20426;-53
2023/08/09 09:19:48;;;;;;;5.03;3.10;;;21.20;50.40;;;;;;5072482;28;20212;-57
2023/08/09 09:22:34;;;;;;;3.63;2.53;;;21.30;51.00;;;;;;5072866;28;20426;-57
2023/08/09 09:25:00;;;;;;;3.70;3.03;;;21.50;51.70;;;;;;5072292;28;20439;-54
2023/08/09 09:27:33;;;;;;;3.30;2.80;;;21.60;50.50;;;;;;5072811;28;20418;-56
2023/08/09 09:30:09;;;;;;;2.45;2.25;;;21.80;49.80;;;;;;5072529;28;20194;-53
2023/08/09 09:32:37;;;;;;;2.27;2.07;;;21.70;49.50;;;;;;5072484;28;20237;-53
2023/08/09 09:35:04;;;;;;;3.00;2.30;;;21.80;49.70;;;;;;5072291;28;20493;-52
2023/08/09 09:37:29;;;;;;;3.30;2.63;;;21.80;48.90;;;;;;5072269;28;20794;-54
2023/08/09 09:39:56;;;;;;;3.00;2.33;;;21.70;48.90;;;;;;5072313;28;20421;-57
2023/08/09 09:42:35;;;;;;;3.20;2.40;;;21.80;49.10;;;;;;5072507;28;20426;-53
2023/08/09 09:45:08;;;;;;;4.60;2.60;;;21.80;48.20;;;;;;5072281;28;20393;-57
2023/08/09 09:47:39;;;;;;;3.27;2.57;;;21.90;49.20;;;;;;5072588;28;20397;-57
2023/08/09 09:50:08;;;;;;;3.23;2.80;;;21.90;48.70;;;;;;5072062;28;20945;-52
2023/08/09 09:52:39;;;;;;;2.70;2.20;;;22.10;47.50;;;;;;5072069;28;20918;-53
2023/08/09 09:55:05;;;;;;;2.70;2.50;;;22.30;47.50;;;;;;5072022;28;20937;-59
2023/08/09 09:57:33;;;;;;;3.07;2.07;;;22.40;48.40;;;;;;5072007;28;20406;-53
2023/08/09 10:00:00;;;;;;;3.30;2.53;;;22.50;48.20;;;;;;5071719;28;20403;-54
2023/08/09 10:02:39;;;;;;;4.83;2.40;;;22.60;46.30;;;;;;5071965;28;20972;-56
2023/08/09 10:05:10;;;;;;;2.77;2.40;;;22.80;45.20;;;;;;5071907;28;20783;-53
2023/08/09 10:07:36;;;;;;;2.70;1.93;;;22.90;44.90;;;;;;5072749;28;20796;-58
2023/08/09 10:10:03;;;;;;;3.03;2.30;;;23.10;45.00;;;;;;5071639;28;20433;-57
2023/08/09 10:12:33;;;;;;;2.87;2.17;;;23.30;43.70;;;;;;5071731;28;20446;-53
2023/08/09 10:15:02;;;;;;;3.13;2.00;;;23.40;43.20;;;;;;5071700;28;20455;-56
2023/08/09 10:17:30;;;;;;;1.77;1.50;;;23.70;42.30;;;;;;5071821;28;20478;-52
2023/08/09 10:20:01;;;;;;;2.70;1.80;;;23.80;42.60;;;;;;5071508;28;20415;-53
2023/08/09 10:22:27;;;;;;;3.47;1.80;;;24.00;42.80;;;;;;5071841;28;20395;-55
2023/08/09 10:24:57;;;;;;;3.07;2.10;;;24.10;40.60;;;;;;5071977;28;20422;-53
2023/08/09 10:27:53;;;;;;;3.93;2.17;;;24.10;41.50;;;;;;5071673;28;20421;-53
2023/08/09 10:30:28;;;;;;;2.43;1.70;;;24.20;40.00;;;;;;5071627;28;20965;-52
2023/08/09 10:32:55;;;;;;;2.50;2.10;;;24.10;42.30;;;;;;5071555;28;20405;-56
2023/08/09 10:35:54;;;;;;;4.73;2.10;;;24.00;41.90;;;;;;5072662;28;20450;-54
2023/08/09 10:38:32;;;;;;;3.50;2.80;;;23.90;41.20;;;;;;5077041;28;20483;-56
2023/08/09 10:41:06;;;;;;;3.20;2.90;;;23.70;40.60;;;;;;5075881;28;20775;-53
2023/08/09 10:43:34;;;;;;;2.77;2.40;;;23.50;41.90;;;;;;5075350;28;20481;-56
2023/08/09 10:46:20;;;;;;;2.70;1.90;;;23.50;44.10;;;;;;5075480;28;20411;-53
2023/08/09 10:48:54;;;;;;;2.93;2.13;;;23.80;42.40;;;;;;5075543;28;20759;-53
2023/08/09 10:51:21;;;;;;;2.53;1.97;;;23.90;41.50;;;;;;5074950;28;20455;-58
2023/08/09 10:54:06;;;;;;;2.70;2.50;;;24.00;39.20;;;;;;5075014;28;20433;-52
2023/08/09 10:56:42;;;;;;;3.67;2.20;;;24.10;41.20;;;;;;5075170;28;20430;-52
2023/08/09 10:59:24;;;;;;;3.40;1.80;;;24.20;39.90;;;;;;5076130;28;20379;-53
2023/08/09 11:01:51;;;;;;;4.13;1.70;;;24.30;35.40;;;;;;5076169;28;20435;-56
2023/08/09 11:04:17;;;;;;;2.87;1.60;;;24.30;37.50;;;;;;5074973;28;20458;-55
2023/08/09 11:06:45;;;;;;;1.70;1.60;;;24.40;35.70;;;;;;5075896;28;20437;-54
2023/08/09 11:09:14;;;;;;;2.87;1.63;;;24.50;35.60;;;;;;5075056;28;20410;-56
2023/08/09 11:11:42;;;;;;;2.37;1.50;;;24.50;35.90;;;;;;5075156;28;20456;-53
2023/08/09 11:14:10;;;;;;;1.80;1.53;;;24.60;36.10;;;;;;5075163;28;20469;-52
2023/08/09 11:16:37;;;;;;;2.43;1.80;;;24.70;36.50;;;;;;5075175;28;20415;-54
2023/08/09 11:19:20;;;;;;;2.93;1.60;;;24.80;36.80;;;;;;5075034;28;20408;-56
2023/08/09 11:21:47;;;;;;;2.43;1.70;;;25.00;36.10;;;;;;5074876;28;20422;-52
2023/08/09 11:24:15;;;;;;;2.80;1.77;;;25.10;36.90;;;;;;5074987;28;20403;-51
2023/08/09 11:26:48;;;;;;;5.03;1.90;;;25.20;37.10;;;;;;5075071;28;20406;-55
2023/08/09 11:29:15;;;;;;;5.63;2.23;;;25.30;36.40;;;;;;5074883;28;20441;-53
2023/08/09 11:31:46;;;;;;;1.60;1.20;;;25.40;35.50;;;;;;5074696;28;20427;-53
2023/08/09 11:34:14;;;;;;;2.33;1.70;;;25.50;34.80;;;;;;5074307;28;20957;-58
2023/08/09 11:36:40;;;;;;;2.30;1.53;;;25.60;35.80;;;;;;5074382;28;20907;-52
2023/08/09 11:39:08;;;;;;;2.30;1.37;;;25.80;35.20;;;;;;5074153;28;20478;-59
2023/08/09 11:41:55;;;;;;;4.93;1.60;;;25.80;33.00;;;;;;5074157;28;20423;-56
2023/08/09 11:44:36;;;;;;;1.50;1.00;;;25.90;33.30;;;;;;5075372;28;20395;-54
2023/08/09 11:47:03;;;;;;;2.50;1.80;;;25.90;34.70;;;;;;5074198;28;21080;-57
2023/08/09 11:49:32;;;;;;;2.03;1.70;;;25.90;32.30;;;;;;5074116;28;20411;-53
2023/08/09 11:52:00;;;;;;;5.37;1.70;;;25.80;31.70;;;;;;5074079;28;20430;-54
2023/08/09 11:54:26;;;;;;;2.23;1.27;;;25.70;30.90;;;;;;5073711;28;20473;-55
2023/08/09 11:56:52;;;;;;;2.20;1.50;;;25.70;30.80;;;;;;5074247;28;20407;-53
2023/08/09 11:59:20;;;;;;;2.10;1.30;;;25.70;30.70;;;;;;5073873;28;20968;-57
2023/08/09 12:01:51;;;;;;;2.17;1.40;;;25.80;28.50;;;;;;5074048;28;20196;-55
2023/08/09 12:04:21;;;;;;;2.60;2.10;;;25.90;27.50;;;;;;5073777;28;20422;-52
2023/08/09 12:06:54;;;;;;;3.70;1.63;;;25.90;30.90;;;;;;5073727;28;20805;-53
2023/08/09 12:09:40;;;;;;;1.83;1.30;;;26.10;33.70;;;;;;5073556;28;20478;-57
2023/08/09 12:12:17;;;;;;;1.93;1.40;;;26.30;32.80;;;;;;5073881;28;20430;-53
2023/08/09 12:14:50;;;;;;;1.87;1.13;;;26.40;33.30;;;;;;5073718;28;20458;-53
2023/08/09 12:17:23;;;;;;;2.67;1.00;;;26.50;32.80;;;;;;5073809;28;20413;-56
2023/08/09 12:19:51;;;;;;;2.50;1.73;;;26.40;33.80;;;;;;5073462;28;20407;-54
2023/08/09 12:22:17;;;;;;;2.73;1.30;;;26.30;34.10;;;;;;5073644;28;20757;-52
2023/08/09 12:24:43;;;;;;;4.20;1.43;;;26.40;34.00;;;;;;5073424;28;20976;-55
2023/08/09 12:27:09;;;;;;;4.70;1.20;;;26.50;30.90;;;;;;5073219;28;20411;-52
2023/08/09 12:29:35;;;;;;;2.40;1.20;;;26.50;29.30;;;;;;5078584;28;20767;-52
2023/08/09 12:32:01;;;;;;;2.67;1.73;;;26.50;31.30;;;;;;5093042;28;20434;-58
2023/08/09 12:34:28;;;;;;;1.70;1.03;;;26.60;27.30;;;;;;5083234;28;20466;-53
2023/08/09 12:36:54;;;;;;;3.10;1.30;;;26.70;28.90;;;;;;5068768;28;20506;-57
2023/08/09 12:39:21;;;;;;;3.07;1.47;;;26.90;30.00;;;;;;5070429;28;20460;-55
2023/08/09 12:41:47;;;;;;;3.73;1.60;;;26.90;30.20;;;;;;5070533;28;20431;-53
2023/08/09 12:44:13;;;;;;;6.43;2.40;;;27.00;30.00;;;;;;5070750;28;20410;-58
2023/08/09 12:46:42;;;;;;;2.47;1.30;;;27.10;30.30;;;;;;5071366;28;20411;-54
2023/08/09 12:49:08;;;;;;;1.67;1.37;;;27.20;30.60;;;;;;5070498;28;20410;-53